createdAt,value
2017-07-01T14:51:32.532Z,55.47
2017-07-01T14:54:00.391Z,57.06
2017-07-01T14:56:28.260Z,58.57
2017-07-01T14:58:56.173Z,55.36
2017-07-01T15:01:24.349Z,55.66
2017-07-01T15:03:53.382Z,56.95
2017-07-01T15:06:21.320Z,55.47
2017-07-01T15:08:49.192Z,56.69
2017-07-01T15:11:17.717Z,57.77
2017-07-01T15:13:45.819Z,60.54
2017-07-01T15:16:15.466Z,59.38
2017-07-01T15:18:43.683Z,57.37
2017-07-01T15:21:13.074Z,60.37
2017-07-01T15:23:44.285Z,61.81
2017-07-01T15:26:13.249Z,61.24
2017-07-01T15:28:45.574Z,64.38
2017-07-01T15:31:14.602Z,63.49
2017-07-01T15:33:42.766Z,60.56
2017-07-01T15:36:10.907Z,63.25
2017-07-01T15:38:39.699Z,62.90
2017-07-01T15:41:11.701Z,63.94
2017-07-01T15:43:40.600Z,66.39
2017-07-01T15:46:10.819Z,67.24
2017-07-01T15:48:39.404Z,65.93
2017-07-01T15:51:07.363Z,65.19
2017-07-01T15:53:36.867Z,64.28
2017-07-01T15:56:06.432Z,65.99
2017-07-01T15:58:35.731Z,65.08
2017-07-01T16:01:15.530Z,66.80
2017-07-01T16:03:43.525Z,69.63
2017-07-01T16:06:11.534Z,70.95
2017-07-01T16:08:41.187Z,69.65
2017-07-01T16:11:11.065Z,70.63
2017-07-01T16:13:41.441Z,71.93
2017-07-01T16:16:11.377Z,70.83
2017-07-01T16:18:44.775Z,71.31
2017-07-01T16:21:12.965Z,72.32
2017-07-01T16:23:42.739Z,70.71
2017-07-01T16:26:10.764Z,71.93
2017-07-01T16:28:39.450Z,72.93
2017-07-01T16:31:08.980Z,73.50
2017-07-01T16:33:41.724Z,73.58
2017-07-01T16:36:10.554Z,73.91
2017-07-01T16:38:40.262Z,72.12
2017-07-01T16:41:08.355Z,73.18
2017-07-01T16:43:37.459Z,74.18
2017-07-01T16:46:05.286Z,74.23
2017-07-01T16:48:36.202Z,76.56
2017-07-01T16:51:04.476Z,75.42
2017-07-01T16:53:33.986Z,74.02
2017-07-01T16:56:03.648Z,75.79
2017-07-01T16:58:31.826Z,75.56
2017-07-01T17:01:00.735Z,75.59
2017-07-01T17:03:29.406Z,77.97
2017-07-01T17:05:57.469Z,79.16
2017-07-01T17:08:25.456Z,79.33
2017-07-01T17:10:53.441Z,80.26
2017-07-01T17:13:21.536Z,80.73
2017-07-01T17:15:49.422Z,81.50
2017-07-01T17:18:17.334Z,81.37
2017-07-01T17:20:45.161Z,81.28
2017-07-01T17:23:13.061Z,80.50
2017-07-01T17:25:40.874Z,81.08
2017-07-01T17:28:08.806Z,82.80
2017-07-01T17:30:36.667Z,81.41
2017-07-01T17:33:04.593Z,82.21
2017-07-01T17:35:33.155Z,80.83
2017-07-01T17:38:00.983Z,81.10
2017-07-01T17:40:28.867Z,81.32
2017-07-01T17:42:56.712Z,81.13
2017-07-01T17:45:24.639Z,81.49
2017-07-01T17:47:52.434Z,82.68
2017-07-01T17:50:20.960Z,83.08
2017-07-01T17:52:50.011Z,81.67
2017-07-01T17:55:18.405Z,82.52
2017-07-01T17:57:46.172Z,82.89
2017-07-01T18:00:13.991Z,81.74
2017-07-01T18:02:41.913Z,80.77
2017-07-01T18:05:09.779Z,81.37
2017-07-01T18:07:37.627Z,81.31
2017-07-01T18:10:05.501Z,83.04
2017-07-01T18:12:33.321Z,82.86
2017-07-01T18:15:01.211Z,83.55
2017-07-01T18:17:29.863Z,82.42
2017-07-01T18:19:57.805Z,83.01
2017-07-01T18:22:26.693Z,83.60
2017-07-01T18:24:54.487Z,83.76
2017-07-01T18:27:22.314Z,83.11
2017-07-01T18:29:50.198Z,83.42
2017-07-01T18:32:17.992Z,82.71
2017-07-01T18:34:45.777Z,82.86
2017-07-01T18:37:13.646Z,84.03
2017-07-01T18:39:41.568Z,85.31
2017-07-01T18:42:09.428Z,84.91
2017-07-01T18:44:37.288Z,84.77
2017-07-01T18:47:05.220Z,84.52
2017-07-01T18:49:33.473Z,84.85
2017-07-01T18:52:01.264Z,84.29
2017-07-01T18:54:29.112Z,85.53
2017-07-01T18:56:56.924Z,86.19
2017-07-01T18:59:24.870Z,85.53
2017-07-01T19:01:52.676Z,84.31
2017-07-01T19:04:20.493Z,85.00
2017-07-01T19:06:48.415Z,85.60
2017-07-01T19:09:16.307Z,85.46
2017-07-01T19:11:44.103Z,85.08
2017-07-01T19:14:12.255Z,84.65
2017-07-01T19:16:40.223Z,85.25
2017-07-01T19:19:08.065Z,85.87
2017-07-01T19:21:36.049Z,85.44
2017-07-01T19:24:04.002Z,85.87
2017-07-01T19:26:31.899Z,86.18
2017-07-01T19:28:59.746Z,86.45
2017-07-01T19:31:27.660Z,85.33
2017-07-01T19:33:55.724Z,85.67
2017-07-01T19:36:23.734Z,86.57
2017-07-01T19:38:52.254Z,85.38
2017-07-01T19:41:20.171Z,85.59
2017-07-01T19:43:48.316Z,86.19
2017-07-01T19:46:16.989Z,85.32
2017-07-01T19:48:48.025Z,85.19
2017-07-01T19:51:16.522Z,85.46
2017-07-01T19:53:44.398Z,85.81
2017-07-01T19:56:12.464Z,85.55
2017-07-01T19:58:40.249Z,85.98
2017-07-01T20:01:08.099Z,85.81
2017-07-01T20:03:36.209Z,85.90
2017-07-01T20:06:04.003Z,86.73
2017-07-01T20:08:31.924Z,85.85
2017-07-01T20:10:59.795Z,86.33
2017-07-01T20:13:27.840Z,86.23
2017-07-01T20:15:55.810Z,86.74
2017-07-01T20:18:23.837Z,85.65
2017-07-01T20:20:51.760Z,85.86
2017-07-01T20:23:20.088Z,84.59
2017-07-01T20:25:48.277Z,85.26
2017-07-01T20:28:16.239Z,86.27
2017-07-01T20:30:44.035Z,86.44
2017-07-01T20:33:11.944Z,85.80
2017-07-01T20:35:39.805Z,85.97
2017-07-01T20:38:07.727Z,86.34
2017-07-01T20:40:35.979Z,85.86
2017-07-01T20:43:05.825Z,85.24
2017-07-01T20:45:33.593Z,85.42
2017-07-01T20:48:01.548Z,85.18
2017-07-01T20:50:29.388Z,85.34
2017-07-01T20:52:57.172Z,85.49
2017-07-01T20:55:27.883Z,86.97
2017-07-01T20:57:55.679Z,86.59
2017-07-01T21:00:23.577Z,87.04
2017-07-01T21:02:52.637Z,86.74
2017-07-01T21:05:20.406Z,88.03
2017-07-01T21:34:09.764Z,87.59
2017-07-01T21:36:37.674Z,87.97
2017-07-01T21:39:05.555Z,87.49
2017-07-01T21:41:33.441Z,88.09
2017-07-01T21:44:01.256Z,87.52
2017-07-01T21:46:29.092Z,88.01
2017-07-01T21:48:57.230Z,87.93
2017-07-01T21:51:24.990Z,88.19
2017-07-01T21:53:52.880Z,87.84
2017-07-01T21:56:21.085Z,85.85
2017-07-01T21:58:48.945Z,87.03
2017-07-01T22:01:16.752Z,87.72
2017-07-01T22:03:45.261Z,88.40
2017-07-01T22:06:13.120Z,87.99
2017-07-01T22:08:40.886Z,87.65
2017-07-01T22:11:09.553Z,87.95
2017-07-01T22:13:37.426Z,87.68
2017-07-01T22:16:05.297Z,88.06
2017-07-01T22:18:33.050Z,88.01
2017-07-01T22:21:01.093Z,87.67
2017-07-01T22:23:30.090Z,87.72
2017-07-01T22:25:58.446Z,87.89
2017-07-01T22:28:26.325Z,88.37
2017-07-01T22:30:54.135Z,87.87
2017-07-01T22:33:22.054Z,87.81
2017-07-01T22:35:50.013Z,87.00
2017-07-01T22:38:17.885Z,87.04
2017-07-01T22:40:47.333Z,87.85
2017-07-01T22:43:15.351Z,87.83
2017-07-01T22:45:43.305Z,88.66
2017-07-01T22:48:12.358Z,88.27
2017-07-01T22:50:40.327Z,88.39
2017-07-01T22:53:08.267Z,87.72
2017-07-01T22:55:36.151Z,87.14
2017-07-01T22:58:04.145Z,87.74
2017-07-01T23:00:32.061Z,87.55
2017-07-01T23:02:59.881Z,88.25
2017-07-01T23:05:27.737Z,88.09
2017-07-01T23:07:55.658Z,88.39
2017-07-01T23:10:24.651Z,88.25
2017-07-01T23:12:53.389Z,88.10
2017-07-01T23:15:21.769Z,89.04
2017-07-01T23:17:49.617Z,88.81
2017-07-01T23:20:18.523Z,88.26
2017-07-01T23:22:46.349Z,88.52
2017-07-01T23:25:14.275Z,88.39
2017-07-01T23:27:42.144Z,88.37
2017-07-01T23:30:09.902Z,88.32
2017-07-01T23:32:37.689Z,87.78
2017-07-01T23:35:05.589Z,87.57
2017-07-01T23:37:33.379Z,87.75
2017-07-01T23:40:02.987Z,87.82
2017-07-01T23:42:30.791Z,87.31
2017-07-01T23:44:58.667Z,87.46
2017-07-01T23:47:26.448Z,88.22
2017-07-01T23:49:54.265Z,87.88
2017-07-01T23:52:22.091Z,87.71
2017-07-01T23:54:49.870Z,88.44
2017-07-01T23:57:17.763Z,88.20
2017-07-01T23:59:45.524Z,87.19
